sensor_id;sensor_type;location;lat;lon;timestamp;temperature;humidity
70676;DHT22;59069;52.242;20.900;2023-10-09T00:01:50;3.85;68.37
70676;DHT22;59069;52.242;20.900;2023-10-09T00:04:16;3.84;68.44
70676;DHT22;59069;52.242;20.900;2023-10-09T00:06:41;3.84;68.56
70676;DHT22;59069;52.242;20.900;2023-10-09T00:09:08;3.85;68.69
70676;DHT22;59069;52.242;20.900;2023-10-09T00:11:51;3.87;68.72
70676;DHT22;59069;52.242;20.900;2023-10-09T00:14:27;3.87;68.71
70676;DHT22;59069;52.242;20.900;2023-10-09T00:17:04;3.88;68.67
70676;DHT22;59069;52.242;20.900;2023-10-09T00:19:47;3.87;68.64
70676;DHT22;59069;52.242;20.900;2023-10-09T00:22:16;3.84;68.71
70676;DHT22;59069;52.242;20.900;2023-10-09T00:25:05;3.84;68.82
70676;DHT22;59069;52.242;20.900;2023-10-09T00:27:41;3.84;68.83
70676;DHT22;59069;52.242;20.900;2023-10-09T00:30:11;3.81;68.94
70676;DHT22;59069;52.242;20.900;2023-10-09T00:32:41;3.78;69.01
70676;DHT22;59069;52.242;20.900;2023-10-09T00:35:10;3.78;69.09
70676;DHT22;59069;52.242;20.900;2023-10-09T00:37:59;3.77;69.21
70676;DHT22;59069;52.242;20.900;2023-10-09T00:40:31;3.80;69.23
70676;DHT22;59069;52.242;20.900;2023-10-09T00:42:59;3.80;69.27
70676;DHT22;59069;52.242;20.900;2023-10-09T00:45:30;3.80;69.31
70676;DHT22;59069;52.242;20.900;2023-10-09T00:47:58;3.78;69.40
70676;DHT22;59069;52.242;20.900;2023-10-09T00:50:27;3.80;69.50
70676;DHT22;59069;52.242;20.900;2023-10-09T00:53:00;3.78;69.57
70676;DHT22;59069;52.242;20.900;2023-10-09T00:55:31;3.78;69.62
70676;DHT22;59069;52.242;20.900;2023-10-09T00:58:12;3.78;69.65
70676;DHT22;59069;52.242;20.900;2023-10-09T01:00:42;3.81;69.61
70676;DHT22;59069;52.242;20.900;2023-10-09T01:03:18;3.81;69.61
70676;DHT22;59069;52.242;20.900;2023-10-09T01:05:53;3.80;69.64
70676;DHT22;59069;52.242;20.900;2023-10-09T01:08:40;3.81;69.80
70676;DHT22;59069;52.242;20.900;2023-10-09T01:11:13;3.80;69.79
70676;DHT22;59069;52.242;20.900;2023-10-09T01:13:47;3.81;69.88
70676;DHT22;59069;52.242;20.900;2023-10-09T01:16:20;3.84;69.89
70676;DHT22;59069;52.242;20.900;2023-10-09T01:18:54;3.84;69.92
70676;DHT22;59069;52.242;20.900;2023-10-09T01:21:22;3.83;69.95
70676;DHT22;59069;52.242;20.900;2023-10-09T01:23:52;3.77;69.93
70676;DHT22;59069;52.242;20.900;2023-10-09T01:26:48;3.80;69.96
70676;DHT22;59069;52.242;20.900;2023-10-09T01:29:17;3.77;70.02
70676;DHT22;59069;52.242;20.900;2023-10-09T01:31:54;3.78;70.09
70676;DHT22;59069;52.242;20.900;2023-10-09T01:34:31;3.78;70.11
70676;DHT22;59069;52.242;20.900;2023-10-09T01:37:03;3.80;70.14
70676;DHT22;59069;52.242;20.900;2023-10-09T01:39:30;3.77;70.22
70676;DHT22;59069;52.242;20.900;2023-10-09T01:41:56;3.81;70.24
70676;DHT22;59069;52.242;20.900;2023-10-09T01:44:30;3.78;70.21
70676;DHT22;59069;52.242;20.900;2023-10-09T01:47:03;3.78;70.22
70676;DHT22;59069;52.242;20.900;2023-10-09T01:49:42;3.78;70.21
70676;DHT22;59069;52.242;20.900;2023-10-09T01:52:11;3.78;70.26
70676;DHT22;59069;52.242;20.900;2023-10-09T01:54:41;3.80;70.44
70676;DHT22;59069;52.242;20.900;2023-10-09T01:57:12;3.81;70.47
70676;DHT22;59069;52.242;20.900;2023-10-09T01:59:41;3.81;70.54
70676;DHT22;59069;52.242;20.900;2023-10-09T02:02:13;3.85;70.43
70676;DHT22;59069;52.242;20.900;2023-10-09T02:04:51;3.85;70.45
70676;DHT22;59069;52.242;20.900;2023-10-09T02:07:18;3.87;70.39
70676;DHT22;59069;52.242;20.900;2023-10-09T02:09:52;3.87;70.44
70676;DHT22;59069;52.242;20.900;2023-10-09T02:12:19;3.87;70.45
70676;DHT22;59069;52.242;20.900;2023-10-09T02:14:47;3.91;70.42
70676;DHT22;59069;52.242;20.900;2023-10-09T02:17:12;3.91;70.40
70676;DHT22;59069;52.242;20.900;2023-10-09T02:19:50;3.95;70.40
70676;DHT22;59069;52.242;20.900;2023-10-09T02:22:17;3.94;70.44
70676;DHT22;59069;52.242;20.900;2023-10-09T02:24:44;3.97;70.44
70676;DHT22;59069;52.242;20.900;2023-10-09T02:27:13;3.95;70.54
70676;DHT22;59069;52.242;20.900;2023-10-09T02:29:45;3.95;70.58
70676;DHT22;59069;52.242;20.900;2023-10-09T02:32:13;3.95;70.61
70676;DHT22;59069;52.242;20.900;2023-10-09T02:34:41;3.95;70.59
70676;DHT22;59069;52.242;20.900;2023-10-09T02:37:11;3.95;70.64
70676;DHT22;59069;52.242;20.900;2023-10-09T02:39:38;3.97;70.66
70676;DHT22;59069;52.242;20.900;2023-10-09T02:42:12;3.95;70.69
70676;DHT22;59069;52.242;20.900;2023-10-09T02:44:38;3.93;70.79
70676;DHT22;59069;52.242;20.900;2023-10-09T02:47:12;3.97;70.81
70676;DHT22;59069;52.242;20.900;2023-10-09T02:49:48;3.95;70.82
70676;DHT22;59069;52.242;20.900;2023-10-09T02:52:14;3.94;70.93
70676;DHT22;59069;52.242;20.900;2023-10-09T02:54:44;3.97;70.91
70676;DHT22;59069;52.242;20.900;2023-10-09T02:57:12;4.01;70.92
70676;DHT22;59069;52.242;20.900;2023-10-09T02:59:53;4.05;70.81
70676;DHT22;59069;52.242;20.900;2023-10-09T03:02:18;4.04;70.78
70676;DHT22;59069;52.242;20.900;2023-10-09T03:04:44;4.02;70.73
70676;DHT22;59069;52.242;20.900;2023-10-09T03:07:10;4.04;70.85
70676;DHT22;59069;52.242;20.900;2023-10-09T03:09:37;4.02;70.83
70676;DHT22;59069;52.242;20.900;2023-10-09T03:12:03;4.01;70.93
70676;DHT22;59069;52.242;20.900;2023-10-09T03:14:33;4.05;71.00
70676;DHT22;59069;52.242;20.900;2023-10-09T03:17:01;4.01;70.98
70676;DHT22;59069;52.242;20.900;2023-10-09T03:19:27;4.01;71.05
70676;DHT22;59069;52.242;20.900;2023-10-09T03:21:53;4.01;71.10
70676;DHT22;59069;52.242;20.900;2023-10-09T03:24:19;4.01;71.11
70676;DHT22;59069;52.242;20.900;2023-10-09T03:26:47;3.99;71.05
70676;DHT22;59069;52.242;20.900;2023-10-09T03:29:13;3.97;71.07
70676;DHT22;59069;52.242;20.900;2023-10-09T03:31:39;3.98;71.17
70676;DHT22;59069;52.242;20.900;2023-10-09T03:34:08;3.95;71.28
70676;DHT22;59069;52.242;20.900;2023-10-09T03:36:35;3.94;71.38
70676;DHT22;59069;52.242;20.900;2023-10-09T03:39:06;3.95;71.48
70676;DHT22;59069;52.242;20.900;2023-10-09T03:41:58;3.95;71.60
70676;DHT22;59069;52.242;20.900;2023-10-09T03:44:24;3.97;71.65
70676;DHT22;59069;52.242;20.900;2023-10-09T03:46:53;3.98;71.67
70676;DHT22;59069;52.242;20.900;2023-10-09T03:49:18;3.97;71.70
70676;DHT22;59069;52.242;20.900;2023-10-09T03:51:49;3.99;71.67
70676;DHT22;59069;52.242;20.900;2023-10-09T03:54:15;4.01;71.67
70676;DHT22;59069;52.242;20.900;2023-10-09T03:56:40;4.01;71.70
70676;DHT22;59069;52.242;20.900;2023-10-09T03:59:06;4.01;71.73
70676;DHT22;59069;52.242;20.900;2023-10-09T04:01:35;3.97;71.69
70676;DHT22;59069;52.242;20.900;2023-10-09T04:04:05;3.99;71.76
70676;DHT22;59069;52.242;20.900;2023-10-09T04:06:32;3.98;71.84
70676;DHT22;59069;52.242;20.900;2023-10-09T04:09:05;4.02;71.85
70676;DHT22;59069;52.242;20.900;2023-10-09T04:11:54;3.98;71.94
70676;DHT22;59069;52.242;20.900;2023-10-09T04:14:39;4.01;72.02
70676;DHT22;59069;52.242;20.900;2023-10-09T04:17:14;4.02;72.05
70676;DHT22;59069;52.242;20.900;2023-10-09T04:19:55;4.04;72.06
70676;DHT22;59069;52.242;20.900;2023-10-09T04:22:40;4.05;72.10
70676;DHT22;59069;52.242;20.900;2023-10-09T04:25:21;4.08;72.09
70676;DHT22;59069;52.242;20.900;2023-10-09T04:27:52;4.08;72.07
70676;DHT22;59069;52.242;20.900;2023-10-09T04:30:19;4.09;72.07
70676;DHT22;59069;52.242;20.900;2023-10-09T04:32:44;4.08;72.05
70676;DHT22;59069;52.242;20.900;2023-10-09T04:35:11;4.08;72.07
70676;DHT22;59069;52.242;20.900;2023-10-09T04:37:48;4.14;72.05
70676;DHT22;59069;52.242;20.900;2023-10-09T04:40:18;4.15;71.98
70676;DHT22;59069;52.242;20.900;2023-10-09T04:43:03;4.17;71.90
70676;DHT22;59069;52.242;20.900;2023-10-09T04:45:40;4.17;71.85
70676;DHT22;59069;52.242;20.900;2023-10-09T04:48:11;4.18;71.89
70676;DHT22;59069;52.242;20.900;2023-10-09T04:50:37;4.21;71.85
70676;DHT22;59069;52.242;20.900;2023-10-09T04:53:13;4.24;71.85
70676;DHT22;59069;52.242;20.900;2023-10-09T04:55:39;4.29;71.90
70676;DHT22;59069;52.242;20.900;2023-10-09T04:58:09;4.31;71.87
70676;DHT22;59069;52.242;20.900;2023-10-09T05:00:39;4.36;71.85
70676;DHT22;59069;52.242;20.900;2023-10-09T05:03:07;4.38;71.75
70676;DHT22;59069;52.242;20.900;2023-10-09T05:05:36;4.44;71.61
70676;DHT22;59069;52.242;20.900;2023-10-09T05:08:15;4.49;71.48
70676;DHT22;59069;52.242;20.900;2023-10-09T05:10:59;4.53;71.31
70676;DHT22;59069;52.242;20.900;2023-10-09T05:13:28;4.56;71.30
70676;DHT22;59069;52.242;20.900;2023-10-09T05:16:03;4.59;71.19
70676;DHT22;59069;52.242;20.900;2023-10-09T05:18:29;4.62;71.13
70676;DHT22;59069;52.242;20.900;2023-10-09T05:21:02;4.66;70.97
70676;DHT22;59069;52.242;20.900;2023-10-09T05:23:47;4.73;70.78
70676;DHT22;59069;52.242;20.900;2023-10-09T05:26:36;4.77;70.62
70676;DHT22;59069;52.242;20.900;2023-10-09T05:29:10;4.81;70.50
70676;DHT22;59069;52.242;20.900;2023-10-09T05:31:51;4.89;70.29
70676;DHT22;59069;52.242;20.900;2023-10-09T05:34:29;4.94;70.09
70676;DHT22;59069;52.242;20.900;2023-10-09T05:37:20;4.98;69.99
70676;DHT22;59069;52.242;20.900;2023-10-09T05:39:58;5.03;69.73
70676;DHT22;59069;52.242;20.900;2023-10-09T05:42:30;5.08;69.51
70676;DHT22;59069;52.242;20.900;2023-10-09T05:45:05;5.11;69.36
70676;DHT22;59069;52.242;20.900;2023-10-09T05:47:47;5.17;69.21
70676;DHT22;59069;52.242;20.900;2023-10-09T05:50:24;5.18;69.14
70676;DHT22;59069;52.242;20.900;2023-10-09T05:52:50;5.26;68.94
70676;DHT22;59069;52.242;20.900;2023-10-09T05:55:22;5.31;68.78
70676;DHT22;59069;52.242;20.900;2023-10-09T05:57:56;5.34;68.55
70676;DHT22;59069;52.242;20.900;2023-10-09T06:00:23;5.41;68.39
70676;DHT22;59069;52.242;20.900;2023-10-09T06:03:07;5.41;68.34
70676;DHT22;59069;52.242;20.900;2023-10-09T06:05:47;5.45;68.13
70676;DHT22;59069;52.242;20.900;2023-10-09T06:08:19;5.51;68.17
70676;DHT22;59069;52.242;20.900;2023-10-09T06:11:04;5.56;68.08
70676;DHT22;59069;52.242;20.900;2023-10-09T06:13:53;5.61;67.75
70676;DHT22;59069;52.242;20.900;2023-10-09T06:16:41;5.66;67.45
70676;DHT22;59069;52.242;20.900;2023-10-09T06:19:11;5.72;67.30
70676;DHT22;59069;52.242;20.900;2023-10-09T06:21:40;5.75;67.16
70676;DHT22;59069;52.242;20.900;2023-10-09T06:24:19;5.80;66.89
70676;DHT22;59069;52.242;20.900;2023-10-09T06:26:45;5.86;66.70
70676;DHT22;59069;52.242;20.900;2023-10-09T06:29:23;5.92;66.67
70676;DHT22;59069;52.242;20.900;2023-10-09T06:32:04;5.96;66.44
70676;DHT22;59069;52.242;20.900;2023-10-09T06:34:50;5.99;66.05
70676;DHT22;59069;52.242;20.900;2023-10-09T06:37:22;6.02;66.05
70676;DHT22;59069;52.242;20.900;2023-10-09T06:39:56;6.06;65.98
70676;DHT22;59069;52.242;20.900;2023-10-09T06:42:25;6.10;65.86
70676;DHT22;59069;52.242;20.900;2023-10-09T06:45:10;6.16;65.57
70676;DHT22;59069;52.242;20.900;2023-10-09T06:47:57;6.19;65.34
70676;DHT22;59069;52.242;20.900;2023-10-09T06:50:43;6.19;65.47
70676;DHT22;59069;52.242;20.900;2023-10-09T06:53:33;6.23;65.49
70676;DHT22;59069;52.242;20.900;2023-10-09T06:56:17;6.31;65.11
70676;DHT22;59069;52.242;20.900;2023-10-09T06:58:58;6.38;64.85
70676;DHT22;59069;52.242;20.900;2023-10-09T07:01:24;6.41;64.91
70676;DHT22;59069;52.242;20.900;2023-10-09T07:03:53;6.45;64.91
70676;DHT22;59069;52.242;20.900;2023-10-09T07:06:20;6.55;64.92
70676;DHT22;59069;52.242;20.900;2023-10-09T07:08:58;6.60;64.59
70676;DHT22;59069;52.242;20.900;2023-10-09T07:11:40;6.65;64.64
70676;DHT22;59069;52.242;20.900;2023-10-09T07:14:13;6.75;64.66
70676;DHT22;59069;52.242;20.900;2023-10-09T07:17:06;6.87;64.35
70676;DHT22;59069;52.242;20.900;2023-10-09T07:19:42;6.96;64.15
70676;DHT22;59069;52.242;20.900;2023-10-09T07:22:08;7.11;64.29
70676;DHT22;59069;52.242;20.900;2023-10-09T07:24:50;7.25;64.22
70676;DHT22;59069;52.242;20.900;2023-10-09T07:27:23;7.40;64.05
70676;DHT22;59069;52.242;20.900;2023-10-09T07:30:27;7.57;63.36
70676;DHT22;59069;52.242;20.900;2023-10-09T07:32:56;7.70;62.55
70676;DHT22;59069;52.242;20.900;2023-10-09T07:35:34;7.83;61.85
70676;DHT22;59069;52.242;20.900;2023-10-09T07:38:22;7.91;61.11
70676;DHT22;59069;52.242;20.900;2023-10-09T07:40:50;7.99;60.57
70676;DHT22;59069;52.242;20.900;2023-10-09T07:43:28;8.02;60.09
70676;DHT22;59069;52.242;20.900;2023-10-09T07:45:56;8.07;60.02
70676;DHT22;59069;52.242;20.900;2023-10-09T07:48:25;8.12;59.83
70676;DHT22;59069;52.242;20.900;2023-10-09T07:51:11;8.22;59.73
70676;DHT22;59069;52.242;20.900;2023-10-09T07:53:36;8.34;59.15
70676;DHT22;59069;52.242;20.900;2023-10-09T07:56:08;8.44;59.26
70676;DHT22;59069;52.242;20.900;2023-10-09T07:58:34;8.59;59.66
70676;DHT22;59069;52.242;20.900;2023-10-09T08:01:11;8.79;60.00
70676;DHT22;59069;52.242;20.900;2023-10-09T08:04:09;9.01;58.79
70676;DHT22;59069;52.242;20.900;2023-10-09T08:06:39;9.14;57.84
70676;DHT22;59069;52.242;20.900;2023-10-09T08:09:05;9.26;57.46
70676;DHT22;59069;52.242;20.900;2023-10-09T08:11:41;9.31;56.59
70676;DHT22;59069;52.242;20.900;2023-10-09T08:14:14;9.37;56.29
70676;DHT22;59069;52.242;20.900;2023-10-09T08:16:58;9.38;55.99
70676;DHT22;59069;52.242;20.900;2023-10-09T08:19:53;9.45;55.56
70676;DHT22;59069;52.242;20.900;2023-10-09T08:22:25;9.45;55.46
70676;DHT22;59069;52.242;20.900;2023-10-09T08:24:51;9.45;55.52
70676;DHT22;59069;52.242;20.900;2023-10-09T08:27:27;9.49;55.32
70676;DHT22;59069;52.242;20.900;2023-10-09T08:32:43;9.63;55.04
70676;DHT22;59069;52.242;20.900;2023-10-09T08:38:01;9.89;54.72
70676;DHT22;59069;52.242;20.900;2023-10-09T08:40:41;10.10;54.26
70676;DHT22;59069;52.242;20.900;2023-10-09T08:43:21;10.20;53.63
70676;DHT22;59069;52.242;20.900;2023-10-09T08:45:47;10.33;53.50
70676;DHT22;59069;52.242;20.900;2023-10-09T08:48:13;10.43;53.36
70676;DHT22;59069;52.242;20.900;2023-10-09T08:50:46;10.50;52.92
70676;DHT22;59069;52.242;20.900;2023-10-09T08:53:12;10.59;52.81
70676;DHT22;59069;52.242;20.900;2023-10-09T08:55:39;10.70;52.04
70676;DHT22;59069;52.242;20.900;2023-10-09T08:58:05;10.74;51.63
70676;DHT22;59069;52.242;20.900;2023-10-09T09:00:57;10.77;51.40
70676;DHT22;59069;52.242;20.900;2023-10-09T09:03:24;10.82;51.18
70676;DHT22;59069;52.242;20.900;2023-10-09T09:06:01;10.87;50.88
70676;DHT22;59069;52.242;20.900;2023-10-09T09:08:29;10.97;50.74
70676;DHT22;59069;52.242;20.900;2023-10-09T09:10:59;11.07;50.55
70676;DHT22;59069;52.242;20.900;2023-10-09T09:13:43;11.18;50.05
70676;DHT22;59069;52.242;20.900;2023-10-09T09:16:21;11.23;49.22
70676;DHT22;59069;52.242;20.900;2023-10-09T09:18:55;11.25;48.76
70676;DHT22;59069;52.242;20.900;2023-10-09T09:21:36;11.32;48.49
70676;DHT22;59069;52.242;20.900;2023-10-09T09:24:12;11.32;47.93
70676;DHT22;59069;52.242;20.900;2023-10-09T09:26:46;11.35;47.54
70676;DHT22;59069;52.242;20.900;2023-10-09T09:29:14;11.32;47.58
70676;DHT22;59069;52.242;20.900;2023-10-09T09:31:56;11.38;47.38
70676;DHT22;59069;52.242;20.900;2023-10-09T09:35:01;11.35;47.75
70676;DHT22;59069;52.242;20.900;2023-10-09T09:37:28;11.43;47.69
70676;DHT22;59069;52.242;20.900;2023-10-09T09:40:01;11.44;47.62
70676;DHT22;59069;52.242;20.900;2023-10-09T09:42:36;11.52;47.22
70676;DHT22;59069;52.242;20.900;2023-10-09T09:45:02;11.63;46.66
70676;DHT22;59069;52.242;20.900;2023-10-09T09:47:29;11.66;45.88
70676;DHT22;59069;52.242;20.900;2023-10-09T09:49:57;11.72;45.08
70676;DHT22;59069;52.242;20.900;2023-10-09T09:52:31;11.67;44.96
70676;DHT22;59069;52.242;20.900;2023-10-09T09:55:04;11.70;45.01
70676;DHT22;59069;52.242;20.900;2023-10-09T09:57:30;11.76;45.00
70676;DHT22;59069;52.242;20.900;2023-10-09T09:59:58;11.82;44.74
70676;DHT22;59069;52.242;20.900;2023-10-09T10:02:30;11.90;44.65
70676;DHT22;59069;52.242;20.900;2023-10-09T10:05:01;11.90;44.03
70676;DHT22;59069;52.242;20.900;2023-10-09T10:07:31;11.91;43.89
70676;DHT22;59069;52.242;20.900;2023-10-09T10:10:40;11.82;43.70
70676;DHT22;59069;52.242;20.900;2023-10-09T10:14:13;11.76;43.45
70676;DHT22;59069;52.242;20.900;2023-10-09T10:16:16;11.74;43.45
70676;DHT22;59069;52.242;20.900;2023-10-09T10:19:04;11.70;43.37
70676;DHT22;59069;52.242;20.900;2023-10-09T10:21:47;11.62;43.64
70676;DHT22;59069;52.242;20.900;2023-10-09T10:33:00;11.55;44.11
70676;DHT22;59069;52.242;20.900;2023-10-09T10:35:35;11.53;44.17
70676;DHT22;59069;52.242;20.900;2023-10-09T10:38:31;11.49;44.12
70676;DHT22;59069;52.242;20.900;2023-10-09T10:43:37;11.32;44.18
70676;DHT22;59069;52.242;20.900;2023-10-09T10:46:18;11.25;44.16
70676;DHT22;59069;52.242;20.900;2023-10-09T10:49:15;11.15;44.58
70676;DHT22;59069;52.242;20.900;2023-10-09T10:51:46;11.11;44.83
70676;DHT22;59069;52.242;20.900;2023-10-09T10:54:22;11.08;44.96
70676;DHT22;59069;52.242;20.900;2023-10-09T10:56:57;11.02;44.94
70676;DHT22;59069;52.242;20.900;2023-10-09T10:59:23;10.95;45.26
70676;DHT22;59069;52.242;20.900;2023-10-09T11:01:52;10.85;45.28
70676;DHT22;59069;52.242;20.900;2023-10-09T11:04:23;10.82;45.08
70676;DHT22;59069;52.242;20.900;2023-10-09T11:06:58;10.77;45.05
70676;DHT22;59069;52.242;20.900;2023-10-09T11:09:57;10.74;45.60
70676;DHT22;59069;52.242;20.900;2023-10-09T11:12:26;10.70;45.84
70676;DHT22;59069;52.242;20.900;2023-10-09T11:15:04;10.64;46.21
70676;DHT22;59069;52.242;20.900;2023-10-09T11:17:35;10.61;46.75
70676;DHT22;59069;52.242;20.900;2023-10-09T11:20:05;10.57;47.32
70676;DHT22;59069;52.242;20.900;2023-10-09T11:22:51;10.57;47.87
70676;DHT22;59069;52.242;20.900;2023-10-09T11:25:35;10.61;48.34
70676;DHT22;59069;52.242;20.900;2023-10-09T11:28:03;10.67;48.72
70676;DHT22;59069;52.242;20.900;2023-10-09T11:30:48;10.72;49.02
70676;DHT22;59069;52.242;20.900;2023-10-09T11:33:21;10.75;49.37
70676;DHT22;59069;52.242;20.900;2023-10-09T11:35:56;10.80;49.65
70676;DHT22;59069;52.242;20.900;2023-10-09T11:38:25;10.82;50.20
70676;DHT22;59069;52.242;20.900;2023-10-09T11:40:54;10.87;50.63
70676;DHT22;59069;52.242;20.900;2023-10-09T11:43:20;10.97;51.10
70676;DHT22;59069;52.242;20.900;2023-10-09T11:46:11;11.00;51.65
70676;DHT22;59069;52.242;20.900;2023-10-09T11:48:37;11.05;52.09
70676;DHT22;59069;52.242;20.900;2023-10-09T11:51:31;11.09;52.27
70676;DHT22;59069;52.242;20.900;2023-10-09T11:53:57;11.15;52.64
70676;DHT22;59069;52.242;20.900;2023-10-09T11:56:23;11.12;52.93
70676;DHT22;59069;52.242;20.900;2023-10-09T11:58:52;11.04;53.20
70676;DHT22;59069;52.242;20.900;2023-10-09T12:01:18;10.92;53.68
70676;DHT22;59069;52.242;20.900;2023-10-09T12:03:50;10.87;54.31
70676;DHT22;59069;52.242;20.900;2023-10-09T12:06:16;10.74;54.97
70676;DHT22;59069;52.242;20.900;2023-10-09T12:08:44;10.65;55.75
70676;DHT22;59069;52.242;20.900;2023-10-09T12:11:12;10.60;56.41
70676;DHT22;59069;52.242;20.900;2023-10-09T12:13:39;10.54;56.97
70676;DHT22;59069;52.242;20.900;2023-10-09T12:16:07;10.53;57.35
70676;DHT22;59069;52.242;20.900;2023-10-09T12:18:36;10.51;57.69
70676;DHT22;59069;52.242;20.900;2023-10-09T12:21:05;10.47;57.91
70676;DHT22;59069;52.242;20.900;2023-10-09T12:23:31;10.47;58.30
70676;DHT22;59069;52.242;20.900;2023-10-09T12:26:03;10.46;58.37
70676;DHT22;59069;52.242;20.900;2023-10-09T12:28:29;10.44;58.78
70676;DHT22;59069;52.242;20.900;2023-10-09T12:30:58;10.47;58.85
70676;DHT22;59069;52.242;20.900;2023-10-09T12:33:27;10.49;58.88
70676;DHT22;59069;52.242;20.900;2023-10-09T12:35:54;10.46;58.88
70676;DHT22;59069;52.242;20.900;2023-10-09T12:38:26;10.49;59.09
70676;DHT22;59069;52.242;20.900;2023-10-09T12:41:04;10.43;59.20
70676;DHT22;59069;52.242;20.900;2023-10-09T12:43:47;10.40;59.41
70676;DHT22;59069;52.242;20.900;2023-10-09T12:46:13;10.43;59.63
70676;DHT22;59069;52.242;20.900;2023-10-09T12:48:42;10.43;59.65
70676;DHT22;59069;52.242;20.900;2023-10-09T12:51:12;10.41;59.86
70676;DHT22;59069;52.242;20.900;2023-10-09T12:53:41;10.46;60.03
70676;DHT22;59069;52.242;20.900;2023-10-09T12:56:07;10.50;60.12
70676;DHT22;59069;52.242;20.900;2023-10-09T12:58:34;10.50;60.06
70676;DHT22;59069;52.242;20.900;2023-10-09T13:01:03;10.47;60.08
70676;DHT22;59069;52.242;20.900;2023-10-09T13:03:35;10.37;60.22
70676;DHT22;59069;52.242;20.900;2023-10-09T13:06:04;10.32;60.46
70676;DHT22;59069;52.242;20.900;2023-10-09T13:08:33;10.26;60.50
70676;DHT22;59069;52.242;20.900;2023-10-09T13:11:05;10.17;60.95
70676;DHT22;59069;52.242;20.900;2023-10-09T13:13:38;10.14;61.35
70676;DHT22;59069;52.242;20.900;2023-10-09T13:16:14;10.14;61.60
70676;DHT22;59069;52.242;20.900;2023-10-09T13:18:53;10.12;61.82
70676;DHT22;59069;52.242;20.900;2023-10-09T13:21:23;10.13;61.96
70676;DHT22;59069;52.242;20.900;2023-10-09T13:23:49;10.10;61.82
70676;DHT22;59069;52.242;20.900;2023-10-09T13:26:20;10.06;61.89
70676;DHT22;59069;52.242;20.900;2023-10-09T13:28:56;10.05;62.14
70676;DHT22;59069;52.242;20.900;2023-10-09T13:31:24;10.06;62.46
70676;DHT22;59069;52.242;20.900;2023-10-09T13:33:56;10.12;62.65
70676;DHT22;59069;52.242;20.900;2023-10-09T13:36:22;10.12;62.45
70676;DHT22;59069;52.242;20.900;2023-10-09T13:39:01;10.14;62.45
70676;DHT22;59069;52.242;20.900;2023-10-09T13:41:49;10.13;62.56
70676;DHT22;59069;52.242;20.900;2023-10-09T13:44:15;10.17;62.85
70676;DHT22;59069;52.242;20.900;2023-10-09T13:46:41;10.16;62.96
70676;DHT22;59069;52.242;20.900;2023-10-09T13:49:07;10.28;63.02
70676;DHT22;59069;52.242;20.900;2023-10-09T13:51:40;10.40;62.96
70676;DHT22;59069;52.242;20.900;2023-10-09T13:54:13;10.59;62.64
70676;DHT22;59069;52.242;20.900;2023-10-09T13:56:47;10.82;62.37
70676;DHT22;59069;52.242;20.900;2023-10-09T13:59:18;10.98;61.94
70676;DHT22;59069;52.242;20.900;2023-10-09T14:01:45;11.05;60.74
70676;DHT22;59069;52.242;20.900;2023-10-09T14:04:13;11.11;60.44
70676;DHT22;59069;52.242;20.900;2023-10-09T14:06:43;11.42;61.85
70676;DHT22;59069;52.242;20.900;2023-10-09T14:09:10;12.34;65.59
70676;DHT22;59069;52.242;20.900;2023-10-09T14:11:36;12.96;59.77
70676;DHT22;59069;52.242;20.900;2023-10-09T14:14:05;12.93;55.54
70676;DHT22;59069;52.242;20.900;2023-10-09T14:16:37;12.68;54.45
70676;DHT22;59069;52.242;20.900;2023-10-09T14:19:02;12.37;54.86
70676;DHT22;59069;52.242;20.900;2023-10-09T14:21:33;12.13;55.84
70676;DHT22;59069;52.242;20.900;2023-10-09T14:24:06;11.86;56.25
70676;DHT22;59069;52.242;20.900;2023-10-09T14:26:41;11.56;57.02
70676;DHT22;59069;52.242;20.900;2023-10-09T14:29:07;11.38;57.87
70676;DHT22;59069;52.242;20.900;2023-10-09T14:31:33;11.22;58.46
70676;DHT22;59069;52.242;20.900;2023-10-09T14:34:04;11.04;59.20
70676;DHT22;59069;52.242;20.900;2023-10-09T14:36:29;10.94;59.68
70676;DHT22;59069;52.242;20.900;2023-10-09T14:38:59;10.81;60.16
70676;DHT22;59069;52.242;20.900;2023-10-09T14:41:26;10.70;60.66
70676;DHT22;59069;52.242;20.900;2023-10-09T14:43:53;10.61;61.31
70676;DHT22;59069;52.242;20.900;2023-10-09T14:46:19;10.53;61.67
70676;DHT22;59069;52.242;20.900;2023-10-09T14:48:52;10.47;62.15
70676;DHT22;59069;52.242;20.900;2023-10-09T14:51:22;10.36;62.28
70676;DHT22;59069;52.242;20.900;2023-10-09T14:53:58;10.29;62.61
70676;DHT22;59069;52.242;20.900;2023-10-09T14:56:25;10.20;63.11
70676;DHT22;59069;52.242;20.900;2023-10-09T14:58:58;10.16;63.70
70676;DHT22;59069;52.242;20.900;2023-10-09T15:01:25;10.17;63.91
70676;DHT22;59069;52.242;20.900;2023-10-09T15:03:54;10.14;63.96
70676;DHT22;59069;52.242;20.900;2023-10-09T15:06:22;10.12;64.17
70676;DHT22;59069;52.242;20.900;2023-10-09T15:08:49;10.09;64.41
70676;DHT22;59069;52.242;20.900;2023-10-09T15:11:14;10.03;64.64
70676;DHT22;59069;52.242;20.900;2023-10-09T15:13:40;10.02;64.89
70676;DHT22;59069;52.242;20.900;2023-10-09T15:16:05;10.00;65.07
70676;DHT22;59069;52.242;20.900;2023-10-09T15:18:31;9.92;65.30
70676;DHT22;59069;52.242;20.900;2023-10-09T15:20:58;9.90;65.57
70676;DHT22;59069;52.242;20.900;2023-10-09T15:23:25;9.86;65.74
70676;DHT22;59069;52.242;20.900;2023-10-09T15:25:50;9.83;66.02
70676;DHT22;59069;52.242;20.900;2023-10-09T15:28:21;9.79;66.15
70676;DHT22;59069;52.242;20.900;2023-10-09T15:30:48;9.78;66.25
70676;DHT22;59069;52.242;20.900;2023-10-09T15:33:15;9.77;66.51
70676;DHT22;59069;52.242;20.900;2023-10-09T15:35:44;9.74;66.72
70676;DHT22;59069;52.242;20.900;2023-10-09T15:38:15;9.69;66.89
70676;DHT22;59069;52.242;20.900;2023-10-09T15:40:41;9.63;67.01
70676;DHT22;59069;52.242;20.900;2023-10-09T15:43:09;9.58;67.22
70676;DHT22;59069;52.242;20.900;2023-10-09T15:45:42;9.55;67.47
70676;DHT22;59069;52.242;20.900;2023-10-09T15:48:08;9.49;67.71
70676;DHT22;59069;52.242;20.900;2023-10-09T15:50:33;9.48;67.87
70676;DHT22;59069;52.242;20.900;2023-10-09T15:53:00;9.42;68.07
70676;DHT22;59069;52.242;20.900;2023-10-09T15:55:26;9.42;68.30
70676;DHT22;59069;52.242;20.900;2023-10-09T15:57:52;9.35;68.53
70676;DHT22;59069;52.242;20.900;2023-10-09T16:00:21;9.31;68.65
70676;DHT22;59069;52.242;20.900;2023-10-09T16:02:48;9.28;68.91
70676;DHT22;59069;52.242;20.900;2023-10-09T16:05:14;9.20;69.10
70676;DHT22;59069;52.242;20.900;2023-10-09T16:07:42;9.21;69.32
70676;DHT22;59069;52.242;20.900;2023-10-09T16:10:08;9.16;69.58
70676;DHT22;59069;52.242;20.900;2023-10-09T16:12:39;9.16;69.92
70676;DHT22;59069;52.242;20.900;2023-10-09T16:15:05;9.10;70.14
70676;DHT22;59069;52.242;20.900;2023-10-09T16:17:32;9.06;70.30